createdAt,value
2023-04-06T00:02:02.567Z,6.22
2023-04-06T00:04:29.342Z,6.30
2023-04-06T00:06:58.798Z,6.20
2023-04-06T00:09:27.606Z,6.57
2023-04-06T00:12:06.431Z,6.28
2023-04-06T00:14:37.112Z,6.40
2023-04-06T00:17:09.560Z,8.27
2023-04-06T00:20:08.519Z,5.95
2023-04-06T00:22:41.254Z,9.73
2023-04-06T00:25:09.433Z,6.18
2023-04-06T00:27:37.982Z,5.65
2023-04-06T00:30:09.730Z,6.55
2023-04-06T00:32:37.370Z,6.40
2023-04-06T00:35:10.971Z,6.00
2023-04-06T00:37:40.598Z,6.82
2023-04-06T00:40:11.011Z,6.13
2023-04-06T00:42:42.414Z,5.70
2023-04-06T00:45:10.944Z,7.55
2023-04-06T00:47:39.205Z,6.18
2023-04-06T00:50:08.774Z,6.00
2023-04-06T00:52:36.891Z,6.70
2023-04-06T00:55:10.108Z,6.55
2023-04-06T00:57:38.778Z,5.72
2023-04-06T01:00:06.228Z,8.18
2023-04-06T01:02:34.293Z,7.95
2023-04-06T01:05:03.441Z,7.15
2023-04-06T01:07:33.061Z,6.50
2023-04-06T01:10:03.886Z,6.50
2023-04-06T01:12:33.735Z,6.25
2023-04-06T01:15:00.798Z,6.20
2023-04-06T01:17:29.647Z,6.07
2023-04-06T01:19:56.574Z,8.30
2023-04-06T01:22:26.289Z,6.45
2023-04-06T01:24:57.723Z,6.65
2023-04-06T01:27:29.098Z,6.10
2023-04-06T01:30:00.411Z,5.60
2023-04-06T01:32:30.440Z,5.88
2023-04-06T01:34:57.181Z,6.75
2023-04-06T01:37:24.003Z,6.32
2023-04-06T01:39:53.839Z,6.25
2023-04-06T01:42:20.997Z,6.97
2023-04-06T01:44:47.687Z,5.68
2023-04-06T01:47:14.434Z,6.30
2023-04-06T01:49:43.342Z,7.70
2023-04-06T01:52:12.200Z,5.25
2023-04-06T01:54:38.912Z,6.28
2023-04-06T01:57:08.034Z,8.60
2023-04-06T01:59:36.934Z,5.50
2023-04-06T02:02:08.304Z,5.93
2023-04-06T02:04:34.973Z,5.97
2023-04-06T02:07:06.293Z,6.40
2023-04-06T02:09:35.575Z,5.70
2023-04-06T02:12:04.380Z,5.80
2023-04-06T02:14:31.212Z,5.50
2023-04-06T02:16:58.041Z,5.63
2023-04-06T02:19:28.023Z,6.25
2023-04-06T02:21:59.872Z,5.82
2023-04-06T02:24:28.848Z,5.65
2023-04-06T02:26:55.968Z,5.90
2023-04-06T02:29:22.762Z,5.88
2023-04-06T02:31:54.231Z,5.60
2023-04-06T02:34:23.087Z,6.45
2023-04-06T02:36:49.736Z,5.55
2023-04-06T02:39:18.720Z,5.45
2023-04-06T02:41:45.715Z,5.72
2023-04-06T02:44:15.755Z,8.05
2023-04-06T02:46:44.625Z,5.70
2023-04-06T02:49:15.943Z,5.32
2023-04-06T02:51:44.821Z,5.15
2023-04-06T02:54:13.805Z,5.90
2023-04-06T02:56:42.803Z,5.38
2023-04-06T02:59:15.085Z,5.15
2023-04-06T03:01:43.890Z,4.72
2023-04-06T03:04:12.953Z,4.70
2023-04-06T03:06:41.741Z,5.45
2023-04-06T03:09:10.799Z,5.20
2023-04-06T03:11:42.799Z,5.05
2023-04-06T03:14:09.538Z,4.75
2023-04-06T03:16:38.411Z,5.10
2023-04-06T03:19:08.020Z,5.35
2023-04-06T03:21:34.814Z,5.10
2023-04-06T03:24:03.627Z,5.15
2023-04-06T03:26:32.426Z,4.90
2023-04-06T03:29:01.744Z,5.35
2023-04-06T03:31:28.570Z,5.93
2023-04-06T03:33:57.666Z,5.32
2023-04-06T03:36:24.372Z,5.10
2023-04-06T03:38:51.045Z,5.25
2023-04-06T03:41:20.531Z,5.55
2023-04-06T03:43:52.562Z,4.95
2023-04-06T03:46:21.590Z,5.20
2023-04-06T03:48:51.936Z,5.47
2023-04-06T03:51:18.662Z,3.67
2023-04-06T03:53:48.556Z,4.82
2023-04-06T03:56:17.434Z,6.93
2023-04-06T03:58:46.412Z,4.65
2023-04-06T04:01:15.232Z,5.47
2023-04-06T04:03:44.481Z,4.78
2023-04-06T04:06:13.342Z,4.82
2023-04-06T04:08:42.408Z,5.32
2023-04-06T04:11:11.273Z,4.60
2023-04-06T04:13:37.991Z,5.20
2023-04-06T04:16:10.005Z,5.07
2023-04-06T04:18:37.756Z,5.05
2023-04-06T04:21:04.663Z,4.82
2023-04-06T04:23:35.318Z,5.18
2023-04-06T04:26:05.556Z,5.07
2023-04-06T04:28:32.326Z,5.13
2023-04-06T04:31:01.532Z,4.35
2023-04-06T04:33:30.547Z,4.28
2023-04-06T04:35:59.451Z,6.13
2023-04-06T04:38:31.298Z,4.70
2023-04-06T04:41:02.751Z,4.80
2023-04-06T04:43:34.032Z,4.70
2023-04-06T04:48:29.635Z,5.07
2023-04-06T04:50:58.996Z,5.00
2023-04-06T04:53:28.754Z,4.82
2023-04-06T04:55:57.565Z,4.70
2023-04-06T04:58:26.417Z,4.85
2023-04-06T05:00:55.417Z,4.85
2023-04-06T05:03:30.514Z,5.28
2023-04-06T05:05:57.227Z,8.98
2023-04-06T05:08:23.939Z,5.13
2023-04-06T05:10:50.664Z,5.05
2023-04-06T05:15:58.168Z,4.55
2023-04-06T05:18:27.877Z,10.43
2023-04-06T05:20:59.782Z,8.95
2023-04-06T05:23:26.441Z,10.60
2023-04-06T05:25:56.388Z,9.82
2023-04-06T05:28:23.401Z,9.07
2023-04-06T05:30:52.339Z,10.65
2023-04-06T05:33:21.349Z,9.63
2023-04-06T05:35:53.298Z,11.60
2023-04-06T05:38:22.300Z,8.88
2023-04-06T05:43:32.395Z,7.13
2023-04-06T05:46:01.478Z,8.35
2023-04-06T05:48:32.879Z,7.30
2023-04-06T05:53:30.206Z,8.70
2023-04-06T05:56:03.633Z,9.65
2023-04-06T05:58:35.572Z,7.10
2023-04-06T06:01:02.464Z,6.97
2023-04-06T06:03:31.339Z,8.75
2023-04-06T06:06:05.600Z,7.05
2023-04-06T06:08:34.620Z,7.00
2023-04-06T06:11:03.441Z,6.25
2023-04-06T06:13:36.221Z,7.18
2023-04-06T06:16:06.247Z,6.60
2023-04-06T06:18:35.458Z,9.75
2023-04-06T06:21:02.103Z,10.00
2023-04-06T06:23:28.818Z,10.93
2023-04-06T06:25:57.678Z,6.75
2023-04-06T06:28:26.540Z,15.32
2023-04-06T06:30:53.214Z,10.38
2023-04-06T06:33:22.138Z,10.88
2023-04-06T06:35:53.589Z,11.68
2023-04-06T06:38:25.037Z,11.18
2023-04-06T06:40:51.838Z,7.95
2023-04-06T06:43:20.965Z,8.32
2023-04-06T06:45:53.511Z,9.32
2023-04-06T06:48:22.565Z,10.88
2023-04-06T06:50:51.880Z,9.52
2023-04-06T06:53:20.966Z,9.82
2023-04-06T06:55:49.848Z,7.55
2023-04-06T06:58:21.452Z,7.47
2023-04-06T07:00:50.973Z,10.80
2023-04-06T07:03:18.416Z,9.13
2023-04-06T07:05:54.367Z,10.82
2023-04-06T07:08:24.833Z,9.13
2023-04-06T07:10:53.767Z,8.20
2023-04-06T07:13:28.376Z,8.20
2023-04-06T07:15:55.139Z,9.75
2023-04-06T07:18:24.562Z,8.85
2023-04-06T07:20:55.909Z,8.52
2023-04-06T07:23:22.632Z,8.70
2023-04-06T07:25:51.900Z,7.88
2023-04-06T07:28:23.201Z,7.30
2023-04-06T07:30:52.263Z,7.07
2023-04-06T07:33:23.700Z,6.97
2023-04-06T07:35:52.551Z,8.07
2023-04-06T07:38:24.225Z,7.70
2023-04-06T07:40:53.577Z,9.40
2023-04-06T07:43:20.321Z,10.07
2023-04-06T07:45:51.852Z,7.97
2023-04-06T07:48:21.510Z,8.25
2023-04-06T07:50:50.407Z,7.28
2023-04-06T07:53:17.136Z,7.45
2023-04-06T07:55:43.867Z,8.15
2023-04-06T07:58:12.759Z,8.40
2023-04-06T08:00:42.086Z,9.45
2023-04-06T08:03:08.853Z,8.45
2023-04-06T08:05:37.725Z,10.38
2023-04-06T08:08:06.610Z,10.73
2023-04-06T08:10:35.480Z,10.48
2023-04-06T08:13:04.289Z,10.63
2023-04-06T08:15:31.207Z,10.63
2023-04-06T08:18:00.139Z,10.98
2023-04-06T08:20:26.997Z,11.07
2023-04-06T08:22:56.422Z,10.77
2023-04-06T08:25:25.244Z,11.27
2023-04-06T08:27:52.089Z,10.77
2023-04-06T08:30:20.856Z,12.35
2023-04-06T08:32:53.293Z,11.73
2023-04-06T08:35:22.612Z,16.02
2023-04-06T08:37:49.515Z,15.77
2023-04-06T08:40:16.289Z,14.95
2023-04-06T08:42:50.677Z,13.20
2023-04-06T08:45:18.494Z,14.02
2023-04-06T08:47:54.130Z,16.00
2023-04-06T08:50:23.216Z,15.98
2023-04-06T08:52:52.361Z,15.82
2023-04-06T08:55:21.737Z,15.82
2023-04-06T08:57:51.012Z,16.90
2023-04-06T09:00:17.881Z,17.35
2023-04-06T09:02:45.351Z,17.13
2023-04-06T09:05:16.724Z,17.95
2023-04-06T09:07:46.676Z,16.65
2023-04-06T09:10:18.094Z,15.77
2023-04-06T09:12:47.624Z,17.23
2023-04-06T09:15:25.804Z,16.83
2023-04-06T09:17:55.770Z,17.67
2023-04-06T09:20:29.379Z,17.20
2023-04-06T09:22:58.987Z,27.10
2023-04-06T09:25:28.304Z,26.25
2023-04-06T09:28:05.226Z,37.67
2023-04-06T09:30:32.022Z,38.38
2023-04-06T09:33:00.348Z,34.47
2023-04-06T09:35:32.369Z,30.38
2023-04-06T09:38:01.297Z,31.35
2023-04-06T09:40:33.167Z,31.20
2023-04-06T09:43:02.268Z,30.60
2023-04-06T09:45:32.118Z,27.88
2023-04-06T09:47:59.512Z,27.90
2023-04-06T09:50:26.337Z,24.65
2023-04-06T09:52:56.211Z,20.52
2023-04-06T09:55:35.588Z,23.92
2023-04-06T09:58:11.314Z,23.55
2023-04-06T10:01:16.673Z,22.90
2023-04-06T10:03:53.028Z,22.30
2023-04-06T10:06:26.717Z,22.30
2023-04-06T10:08:55.592Z,19.23
2023-04-06T10:11:28.551Z,20.13
2023-04-06T10:13:58.031Z,19.83
2023-04-06T10:16:30.566Z,18.38
2023-04-06T10:19:05.665Z,17.15
2023-04-06T10:21:35.679Z,19.40
2023-04-06T10:24:11.848Z,18.77
2023-04-06T10:26:41.239Z,17.73
2023-04-06T10:29:11.259Z,16.67
2023-04-06T10:31:45.156Z,16.17
2023-04-06T10:34:12.181Z,16.50
2023-04-06T10:36:39.778Z,52.42
2023-04-06T10:39:09.521Z,49.03
2023-04-06T10:41:49.974Z,36.88
2023-04-06T10:44:24.550Z,32.60
2023-04-06T10:47:03.761Z,38.65
2023-04-06T10:49:30.661Z,39.08
2023-04-06T10:51:58.816Z,38.15
2023-04-06T10:54:28.878Z,37.00
2023-04-06T10:56:57.873Z,36.25
2023-04-06T10:59:29.337Z,37.67
2023-04-06T11:01:57.474Z,40.55
2023-04-06T11:04:27.139Z,42.33
2023-04-06T11:06:55.010Z,39.58
2023-04-06T11:09:28.487Z,37.20
2023-04-06T11:11:57.989Z,37.63
2023-04-06T11:14:26.963Z,40.03
2023-04-06T11:16:55.940Z,38.42
2023-04-06T11:19:23.776Z,37.53
2023-04-06T11:21:52.801Z,42.78
2023-04-06T11:24:21.097Z,36.38
2023-04-06T11:26:53.418Z,33.58
2023-04-06T11:29:26.748Z,35.67
2023-04-06T11:31:54.738Z,34.22
2023-04-06T11:34:25.369Z,32.35
2023-04-06T11:36:59.030Z,33.28
2023-04-06T11:39:32.859Z,34.75
2023-04-06T11:42:04.989Z,36.65
2023-04-06T11:44:39.636Z,32.35
2023-04-06T11:47:10.836Z,33.70
2023-04-06T11:49:41.842Z,34.90
2023-04-06T11:52:20.866Z,31.20
2023-04-06T11:54:49.529Z,33.92
2023-04-06T11:57:19.352Z,31.17
2023-04-06T11:59:46.581Z,33.10
2023-04-06T12:02:13.412Z,30.33
2023-04-06T12:04:43.632Z,33.10
2023-04-06T12:07:13.633Z,31.15
2023-04-06T12:09:45.072Z,32.40
2023-04-06T12:12:11.685Z,28.70
2023-04-06T12:14:40.485Z,29.75
2023-04-06T12:17:07.274Z,29.95
2023-04-06T12:19:35.262Z,35.38
2023-04-06T12:22:01.909Z,33.72
2023-04-06T12:24:29.665Z,30.60
2023-04-06T12:27:08.567Z,28.77
2023-04-06T12:29:39.175Z,31.92
2023-04-06T12:32:08.030Z,29.60
2023-04-06T12:34:34.777Z,29.23
2023-04-06T12:37:03.815Z,29.52
2023-04-06T12:39:31.226Z,30.42
2023-04-06T12:41:58.285Z,27.17
2023-04-06T12:44:26.317Z,26.10
2023-04-06T12:46:56.640Z,30.73
2023-04-06T12:49:26.826Z,28.13
2023-04-06T12:51:53.701Z,30.55
2023-04-06T12:54:22.010Z,43.35
2023-04-06T12:56:52.943Z,45.60
2023-04-06T12:59:26.401Z,48.80
2023-04-06T13:01:57.380Z,51.22
2023-04-06T13:06:56.942Z,60.25
2023-04-06T13:09:27.233Z,62.15
2023-04-06T13:11:53.904Z,62.33
2023-04-06T13:14:24.537Z,66.55
2023-04-06T13:16:56.060Z,62.13
2023-04-06T13:19:29.653Z,65.30
2023-04-06T13:21:58.804Z,65.15
2023-04-06T13:24:27.193Z,59.53
2023-04-06T13:26:55.319Z,65.22
2023-04-06T13:29:24.485Z,66.97
2023-04-06T13:31:53.848Z,60.58
2023-04-06T13:34:25.349Z,62.25
2023-04-06T13:36:52.323Z,63.92
2023-04-06T13:39:20.407Z,59.83
2023-04-06T13:41:49.457Z,62.63
2023-04-06T13:44:16.362Z,63.33
2023-04-06T13:46:47.074Z,60.80
2023-04-06T13:49:19.070Z,59.10
2023-04-06T13:51:48.978Z,57.95
2023-04-06T13:54:20.746Z,56.75
2023-04-06T13:56:52.767Z,59.38
2023-04-06T13:59:22.432Z,58.55
2023-04-06T14:01:51.785Z,59.72
2023-04-06T14:04:23.770Z,61.65
2023-04-06T14:06:51.666Z,54.85
2023-04-06T14:09:20.686Z,56.13
2023-04-06T14:11:50.544Z,58.75
2023-04-06T14:14:18.038Z,55.35
2023-04-06T14:16:47.954Z,54.72
2023-04-06T14:19:19.284Z,53.25
2023-04-06T14:21:46.559Z,59.28
2023-04-06T14:24:17.316Z,55.03
2023-04-06T14:26:48.588Z,52.08
2023-04-06T14:29:18.099Z,50.13
2023-04-06T14:31:51.074Z,52.53
2023-04-06T14:34:18.255Z,51.22
2023-04-06T14:36:47.414Z,51.10
2023-04-06T14:39:14.229Z,47.75
2023-04-06T14:41:41.916Z,45.15
2023-04-06T14:44:13.158Z,52.13
2023-04-06T14:46:45.520Z,49.65
2023-04-06T14:49:12.312Z,44.03
2023-04-06T14:51:43.879Z,45.38
2023-04-06T14:54:15.896Z,48.50
2023-04-06T14:56:44.803Z,50.28
2023-04-06T14:59:15.568Z,46.72
2023-04-06T15:01:47.056Z,45.08
2023-04-06T15:04:15.180Z,43.03
2023-04-06T15:06:44.292Z,42.70
2023-04-06T15:09:12.650Z,42.35
2023-04-06T15:11:44.576Z,42.42
2023-04-06T15:14:11.301Z,47.40
2023-04-06T15:16:40.864Z,41.58
2023-04-06T15:19:09.652Z,43.53
2023-04-06T15:21:38.848Z,34.50
2023-04-06T15:24:07.399Z,31.17
2023-04-06T15:26:38.655Z,35.75
2023-04-06T15:29:10.110Z,38.88
2023-04-06T15:31:38.748Z,35.28
2023-04-06T15:34:08.629Z,38.80
2023-04-06T15:36:37.750Z,38.10
2023-04-06T15:39:07.047Z,34.45
2023-04-06T15:41:36.638Z,36.85
2023-04-06T15:44:05.404Z,36.10
2023-04-06T15:46:34.487Z,35.70
2023-04-06T15:49:01.693Z,33.22
2023-04-06T15:51:31.603Z,33.33
2023-04-06T15:53:58.757Z,31.30
2023-04-06T15:56:27.820Z,30.02
2023-04-06T15:58:57.688Z,30.35
2023-04-06T16:01:24.408Z,29.98
2023-04-06T16:03:51.203Z,26.88
2023-04-06T16:06:19.269Z,28.13
2023-04-06T16:08:49.202Z,25.25
2023-04-06T16:11:18.461Z,29.75
2023-04-06T16:13:50.078Z,27.60
2023-04-06T16:16:22.104Z,27.08
2023-04-06T16:18:53.578Z,26.25
2023-04-06T16:21:24.936Z,26.75
2023-04-06T16:23:51.522Z,26.65
2023-04-06T16:26:18.322Z,26.98
2023-04-06T16:28:47.193Z,26.98
2023-04-06T16:31:22.877Z,25.77
2023-04-06T16:33:50.602Z,27.90
2023-04-06T16:36:30.163Z,25.45
2023-04-06T16:38:59.655Z,22.85
2023-04-06T16:41:29.305Z,24.95
2023-04-06T16:43:58.342Z,25.67
2023-04-06T16:46:34.930Z,27.52
2023-04-06T16:49:04.965Z,26.05
2023-04-06T16:51:37.182Z,21.10
2023-04-06T16:54:04.145Z,22.02
2023-04-06T16:56:31.678Z,22.35
2023-04-06T16:58:58.408Z,22.58
2023-04-06T17:01:30.896Z,24.42
2023-04-06T17:03:59.912Z,26.08
2023-04-06T17:06:28.949Z,27.05
2023-04-06T17:08:55.822Z,26.48
2023-04-06T17:11:31.710Z,26.48
2023-04-06T17:14:02.764Z,31.65
2023-04-06T17:16:31.688Z,33.47
2023-04-06T17:19:00.935Z,30.20
2023-04-06T17:21:30.935Z,29.50
2023-04-06T17:23:59.813Z,33.47
2023-04-06T17:26:28.765Z,31.65
2023-04-06T17:28:57.603Z,30.60
2023-04-06T17:31:24.184Z,32.38
2023-04-06T17:33:54.369Z,31.50
2023-04-06T17:36:24.368Z,30.05
2023-04-06T17:38:51.346Z,34.90
2023-04-06T17:41:20.228Z,33.35
2023-04-06T17:43:51.709Z,36.60
2023-04-06T17:46:20.752Z,34.45
2023-04-06T17:48:52.010Z,32.42
2023-04-06T17:53:50.449Z,31.75
2023-04-06T17:56:24.402Z,32.33
2023-04-06T17:58:53.165Z,33.50
2023-04-06T18:01:22.004Z,31.55
2023-04-06T18:03:53.643Z,30.50
2023-04-06T18:06:20.592Z,31.05
2023-04-06T18:08:49.376Z,31.42
2023-04-06T18:11:19.756Z,34.67
2023-04-06T18:13:46.363Z,30.83
2023-04-06T18:16:16.422Z,31.23
2023-04-06T18:18:43.178Z,31.10
2023-04-06T18:21:12.349Z,31.90
2023-04-06T18:23:39.063Z,25.88
2023-04-06T18:26:06.132Z,25.65
2023-04-06T18:28:33.473Z,25.45
2023-04-06T18:31:02.464Z,26.65
2023-04-06T18:33:32.765Z,26.58
2023-04-06T18:36:02.076Z,28.70
2023-04-06T18:38:31.504Z,26.48
2023-04-06T18:40:59.012Z,26.15
2023-04-06T18:43:28.540Z,26.58
2023-04-06T18:45:55.365Z,30.23
2023-04-06T18:48:22.206Z,30.92
2023-04-06T18:50:57.796Z,29.45
2023-04-06T18:53:24.830Z,32.38
2023-04-06T18:55:55.109Z,24.48
2023-04-06T18:58:25.033Z,26.10
2023-04-06T19:00:52.799Z,26.70
2023-04-06T19:03:22.591Z,28.58
2023-04-06T19:05:55.152Z,25.23
2023-04-06T19:11:07.090Z,26.00
2023-04-06T19:13:38.256Z,23.75
2023-04-06T19:18:46.493Z,24.58
2023-04-06T19:21:41.091Z,24.95
2023-04-06T19:24:11.384Z,23.20
2023-04-06T19:26:42.611Z,20.92
2023-04-06T19:31:40.847Z,19.33
2023-04-06T19:34:08.178Z,22.23
2023-04-06T19:36:36.927Z,22.02
2023-04-06T19:39:06.247Z,23.00
2023-04-06T19:41:38.387Z,23.20
2023-04-06T19:44:05.011Z,24.20
2023-04-06T19:46:34.710Z,21.30
2023-04-06T19:49:05.498Z,20.98
2023-04-06T19:51:36.321Z,20.90
2023-04-06T19:54:11.117Z,21.85
2023-04-06T19:56:40.550Z,20.65
2023-04-06T19:59:07.396Z,21.77
2023-04-06T20:01:58.305Z,18.98
2023-04-06T20:04:30.236Z,19.02
2023-04-06T20:06:59.683Z,21.15
2023-04-06T20:09:28.629Z,21.02
2023-04-06T20:11:58.385Z,20.73
2023-04-06T20:14:31.937Z,17.67
2023-04-06T20:17:02.943Z,18.45
2023-04-06T20:22:03.543Z,20.25
2023-04-06T20:24:38.834Z,20.80
2023-04-06T20:27:25.515Z,20.20
2023-04-06T20:29:55.447Z,18.85
2023-04-06T20:32:24.642Z,18.70
2023-04-06T20:34:52.680Z,19.40
2023-04-06T20:37:22.670Z,21.08
2023-04-06T20:39:52.456Z,20.95
2023-04-06T20:42:21.662Z,22.73
2023-04-06T20:44:53.252Z,17.75
2023-04-06T20:47:25.572Z,22.67
2023-04-06T20:49:55.736Z,16.67
2023-04-06T20:52:23.830Z,12.45
2023-04-06T20:54:56.892Z,11.88
2023-04-06T20:57:24.960Z,17.58
2023-04-06T21:08:43.467Z,14.45
2023-04-06T21:11:11.588Z,11.10
2023-04-06T21:13:43.837Z,12.60
2023-04-06T21:16:11.814Z,12.13
2023-04-06T21:18:38.936Z,10.40
2023-04-06T21:21:10.888Z,11.55
2023-04-06T21:23:42.271Z,13.27
2023-04-06T21:26:14.611Z,10.73
2023-04-06T21:28:43.578Z,10.98
2023-04-06T21:34:03.362Z,11.52
2023-04-06T21:36:33.351Z,14.13
2023-04-06T21:39:00.720Z,13.05
2023-04-06T21:41:32.811Z,12.35
2023-04-06T21:44:01.772Z,11.38
2023-04-06T21:46:31.630Z,9.55
2023-04-06T21:49:03.838Z,10.40
2023-04-06T21:51:33.763Z,9.80
2023-04-06T21:54:02.921Z,10.77
2023-04-06T21:56:30.217Z,9.75
2023-04-06T21:58:59.646Z,9.68
2023-04-06T22:01:28.822Z,11.23
2023-04-06T22:04:00.532Z,9.27
2023-04-06T22:06:30.368Z,11.60
2023-04-06T22:09:00.407Z,10.77
2023-04-06T22:11:27.039Z,10.05
2023-04-06T22:13:56.316Z,10.60
2023-04-06T22:16:23.132Z,8.82
2023-04-06T22:18:51.225Z,9.32
2023-04-06T22:21:19.544Z,11.15
2023-04-06T22:23:49.753Z,9.00
2023-04-06T22:26:16.513Z,9.23
2023-04-06T22:28:43.277Z,10.05
2023-04-06T22:31:14.703Z,9.65
2023-04-06T22:33:42.362Z,8.75
2023-04-06T22:36:11.685Z,8.57
2023-04-06T22:38:43.981Z,8.00
2023-04-06T22:41:11.034Z,9.00
2023-04-06T22:43:37.917Z,8.40
2023-04-06T22:46:05.983Z,9.27
2023-04-06T22:48:37.944Z,8.85
2023-04-06T22:51:08.518Z,8.70
2023-04-06T22:53:35.395Z,8.43
2023-04-06T22:56:02.433Z,8.25
2023-04-06T22:58:31.421Z,8.25
2023-04-06T23:01:01.274Z,8.20
2023-04-06T23:03:32.569Z,9.27
2023-04-06T23:08:38.115Z,7.68
2023-04-06T23:11:14.384Z,8.20
2023-04-06T23:13:43.377Z,8.07
2023-04-06T23:16:15.195Z,8.15
2023-04-06T23:18:47.146Z,8.93
2023-04-06T23:21:16.388Z,8.48
2023-04-06T23:23:43.039Z,7.75
2023-04-06T23:26:09.784Z,8.45
2023-04-06T23:28:38.789Z,8.60
2023-04-06T23:31:07.771Z,7.72
2023-04-06T23:33:36.953Z,7.60
2023-04-06T23:36:03.783Z,7.70
2023-04-06T23:38:37.112Z,7.22
2023-04-06T23:41:05.926Z,7.30
2023-04-06T23:43:32.577Z,8.93
2023-04-06T23:46:01.957Z,11.48
2023-04-06T23:48:33.898Z,7.53
2023-04-06T23:51:05.621Z,7.60
2023-04-06T23:53:42.430Z,7.18
2023-04-06T23:56:11.233Z,7.45
2023-04-06T23:58:47.696Z,6.97
